sensor_id;sensor_type;location;lat;lon;timestamp;pressure;altitude;pressure_sealevel;temperature;humidity
62694;BME280;48759;52.544;13.418;2023-04-26T00:02:17;100721.06;;;0.50;100.00
62694;BME280;48759;52.544;13.418;2023-04-26T00:04:43;100718.34;;;0.50;100.00
62694;BME280;48759;52.544;13.418;2023-04-26T00:07:12;100721.34;;;0.47;100.00
62694;BME280;48759;52.544;13.418;2023-04-26T00:09:40;100720.47;;;0.47;100.00
62694;BME280;48759;52.544;13.418;2023-04-26T00:12:08;100724.31;;;0.44;100.00
62694;BME280;48759;52.544;13.418;2023-04-26T00:14:36;100724.59;;;0.41;100.00
62694;BME280;48759;52.544;13.418;2023-04-26T00:17:03;100730.28;;;0.38;100.00
62694;BME280;48759;52.544;13.418;2023-04-26T00:19:29;100723.16;;;0.37;100.00
62694;BME280;48759;52.544;13.418;2023-04-26T00:21:56;100721.31;;;0.37;100.00
62694;BME280;48759;52.544;13.418;2023-04-26T00:24:24;100722.91;;;0.40;100.00
62694;BME280;48759;52.544;13.418;2023-04-26T00:26:53;100725.16;;;0.35;100.00
62694;BME280;48759;52.544;13.418;2023-04-26T00:29:20;100720.88;;;0.32;100.00
62694;BME280;48759;52.544;13.418;2023-04-26T00:31:46;100738.84;;;0.33;100.00
62694;BME280;48759;52.544;13.418;2023-04-26T00:34:13;100728.41;;;0.29;100.00
62694;BME280;48759;52.544;13.418;2023-04-26T00:36:40;100738.81;;;0.24;100.00
62694;BME280;48759;52.544;13.418;2023-04-26T00:39:07;100727.41;;;0.20;100.00
62694;BME280;48759;52.544;13.418;2023-04-26T00:41:36;100730.97;;;0.21;100.00
62694;BME280;48759;52.544;13.418;2023-04-26T00:44:03;100729.09;;;0.12;100.00
62694;BME280;48759;52.544;13.418;2023-04-26T00:46:30;100720.13;;;0.11;100.00
62694;BME280;48759;52.544;13.418;2023-04-26T00:48:57;100733.47;;;0.03;100.00
62694;BME280;48759;52.544;13.418;2023-04-26T00:51:24;100732.38;;;0.06;100.00
62694;BME280;48759;52.544;13.418;2023-04-26T00:53:51;100718.41;;;0.00;100.00
62694;BME280;48759;52.544;13.418;2023-04-26T00:56:18;100724.53;;;0.03;100.00
62694;BME280;48759;52.544;13.418;2023-04-26T00:58:47;100729.09;;;0.02;100.00
62694;BME280;48759;52.544;13.418;2023-04-26T01:01:14;100726.06;;;-0.05;100.00
62694;BME280;48759;52.544;13.418;2023-04-26T01:03:42;100736.63;;;-0.02;100.00
62694;BME280;48759;52.544;13.418;2023-04-26T01:06:11;100726.78;;;-0.03;100.00
62694;BME280;48759;52.544;13.418;2023-04-26T01:08:37;100733.75;;;-0.10;100.00
62694;BME280;48759;52.544;13.418;2023-04-26T01:11:04;100742.84;;;-0.11;100.00
62694;BME280;48759;52.544;13.418;2023-04-26T01:13:31;100741.84;;;-0.10;100.00
62694;BME280;48759;52.544;13.418;2023-04-26T01:16:00;100735.47;;;-0.09;100.00
62694;BME280;48759;52.544;13.418;2023-04-26T01:18:28;100729.63;;;-0.14;100.00
62694;BME280;48759;52.544;13.418;2023-04-26T01:20:55;100736.00;;;-0.15;100.00
62694;BME280;48759;52.544;13.418;2023-04-26T01:23:23;100738.25;;;-0.20;100.00
62694;BME280;48759;52.544;13.418;2023-04-26T01:25:50;100742.97;;;-0.22;100.00
62694;BME280;48759;52.544;13.418;2023-04-26T01:28:18;100748.22;;;-0.20;100.00
62694;BME280;48759;52.544;13.418;2023-04-26T01:30:44;100743.50;;;-0.28;100.00
62694;BME280;48759;52.544;13.418;2023-04-26T01:33:11;100742.78;;;-0.30;100.00
62694;BME280;48759;52.544;13.418;2023-04-26T01:35:40;100747.34;;;-0.30;100.00
62694;BME280;48759;52.544;13.418;2023-04-26T01:38:07;100752.63;;;-0.29;100.00
62694;BME280;48759;52.544;13.418;2023-04-26T01:40:35;100752.03;;;-0.32;100.00
62694;BME280;48759;52.544;13.418;2023-04-26T01:43:01;100766.41;;;-0.32;100.00
62694;BME280;48759;52.544;13.418;2023-04-26T01:45:28;100755.16;;;-0.37;100.00
62694;BME280;48759;52.544;13.418;2023-04-26T01:47:58;100756.69;;;-0.34;100.00
62694;BME280;48759;52.544;13.418;2023-04-26T01:50:25;100757.84;;;-0.37;100.00
62694;BME280;48759;52.544;13.418;2023-04-26T01:52:52;100760.94;;;-0.42;100.00
62694;BME280;48759;52.544;13.418;2023-04-26T01:55:18;100767.19;;;-0.41;100.00
62694;BME280;48759;52.544;13.418;2023-04-26T01:57:47;100757.78;;;-0.47;100.00
62694;BME280;48759;52.544;13.418;2023-04-26T02:00:14;100763.94;;;-0.45;100.00
62694;BME280;48759;52.544;13.418;2023-04-26T02:02:41;100760.09;;;-0.42;100.00
62694;BME280;48759;52.544;13.418;2023-04-26T02:05:09;100766.91;;;-0.48;100.00
62694;BME280;48759;52.544;13.418;2023-04-26T02:07:36;100761.16;;;-0.54;100.00
62694;BME280;48759;52.544;13.418;2023-04-26T02:10:03;100760.31;;;-0.55;100.00
62694;BME280;48759;52.544;13.418;2023-04-26T02:12:30;100757.59;;;-0.55;100.00
62694;BME280;48759;52.544;13.418;2023-04-26T02:14:58;100758.00;;;-0.59;100.00
62694;BME280;48759;52.544;13.418;2023-04-26T02:17:25;100761.72;;;-0.60;100.00
62694;BME280;48759;52.544;13.418;2023-04-26T02:19:53;100762.69;;;-0.61;100.00
62694;BME280;48759;52.544;13.418;2023-04-26T02:22:20;100764.66;;;-0.63;100.00
62694;BME280;48759;52.544;13.418;2023-04-26T02:24:50;100762.50;;;-0.69;100.00
62694;BME280;48759;52.544;13.418;2023-04-26T02:27:17;100755.09;;;-0.67;100.00
62694;BME280;48759;52.544;13.418;2023-04-26T02:29:44;100759.69;;;-0.68;100.00
62694;BME280;48759;52.544;13.418;2023-04-26T02:32:12;100751.69;;;-0.69;100.00
62694;BME280;48759;52.544;13.418;2023-04-26T02:34:39;100747.28;;;-0.70;100.00
62694;BME280;48759;52.544;13.418;2023-04-26T02:37:06;100750.84;;;-0.70;100.00
62694;BME280;48759;52.544;13.418;2023-04-26T02:39:33;100750.34;;;-0.75;100.00
62694;BME280;48759;52.544;13.418;2023-04-26T02:42:00;100755.94;;;-0.77;100.00
62694;BME280;48759;52.544;13.418;2023-04-26T02:44:28;100755.56;;;-0.83;100.00
62694;BME280;48759;52.544;13.418;2023-04-26T02:46:55;100766.13;;;-0.80;100.00
62694;BME280;48759;52.544;13.418;2023-04-26T02:49:23;100760.59;;;-0.79;100.00
62694;BME280;48759;52.544;13.418;2023-04-26T02:51:50;100760.84;;;-0.82;100.00
62694;BME280;48759;52.544;13.418;2023-04-26T02:54:16;100755.44;;;-0.82;100.00
62694;BME280;48759;52.544;13.418;2023-04-26T02:56:43;100753.28;;;-0.88;100.00
62694;BME280;48759;52.544;13.418;2023-04-26T02:59:10;100762.13;;;-0.86;100.00
62694;BME280;48759;52.544;13.418;2023-04-26T03:01:36;100759.41;;;-0.86;100.00
62694;BME280;48759;52.544;13.418;2023-04-26T03:04:03;100762.66;;;-0.92;100.00
62694;BME280;48759;52.544;13.418;2023-04-26T03:06:31;100762.38;;;-0.89;100.00
62694;BME280;48759;52.544;13.418;2023-04-26T03:08:58;100754.75;;;-0.84;100.00
62694;BME280;48759;52.544;13.418;2023-04-26T03:11:25;100762.13;;;-0.86;100.00
62694;BME280;48759;52.544;13.418;2023-04-26T03:13:51;100763.09;;;-0.87;100.00
62694;BME280;48759;52.544;13.418;2023-04-26T03:16:18;100766.91;;;-0.89;100.00
62694;BME280;48759;52.544;13.418;2023-04-26T03:18:45;100759.34;;;-0.95;100.00
62694;BME280;48759;52.544;13.418;2023-04-26T03:21:12;100764.75;;;-0.95;100.00
62694;BME280;48759;52.544;13.418;2023-04-26T03:23:40;100769.28;;;-0.96;100.00
62694;BME280;48759;52.544;13.418;2023-04-26T03:26:07;100760.59;;;-0.99;100.00
62694;BME280;48759;52.544;13.418;2023-04-26T03:28:33;100772.72;;;-0.94;100.00
62694;BME280;48759;52.544;13.418;2023-04-26T03:31:00;100774.56;;;-0.94;100.00
62694;BME280;48759;52.544;13.418;2023-04-26T03:33:27;100757.06;;;-1.00;100.00
62694;BME280;48759;52.544;13.418;2023-04-26T03:35:53;100768.97;;;-1.02;100.00
62694;BME280;48759;52.544;13.418;2023-04-26T03:38:20;100768.84;;;-1.01;100.00
62694;BME280;48759;52.544;13.418;2023-04-26T03:40:49;100769.03;;;-0.93;100.00
62694;BME280;48759;52.544;13.418;2023-04-26T03:43:17;100774.94;;;-0.99;100.00
62694;BME280;48759;52.544;13.418;2023-04-26T03:45:46;100785.63;;;-0.97;100.00
62694;BME280;48759;52.544;13.418;2023-04-26T03:48:15;100771.88;;;-0.94;100.00
62694;BME280;48759;52.544;13.418;2023-04-26T03:50:42;100773.09;;;-0.98;100.00
62694;BME280;48759;52.544;13.418;2023-04-26T03:53:10;100779.75;;;-1.02;100.00
62694;BME280;48759;52.544;13.418;2023-04-26T03:55:37;100777.63;;;-0.99;100.00
62694;BME280;48759;52.544;13.418;2023-04-26T03:58:05;100779.34;;;-0.98;100.00
62694;BME280;48759;52.544;13.418;2023-04-26T04:00:33;100787.34;;;-0.96;100.00
62694;BME280;48759;52.544;13.418;2023-04-26T04:02:59;100797.91;;;-0.93;100.00
62694;BME280;48759;52.544;13.418;2023-04-26T04:05:26;100782.06;;;-0.98;100.00
62694;BME280;48759;52.544;13.418;2023-04-26T04:07:53;100787.63;;;-0.99;100.00
62694;BME280;48759;52.544;13.418;2023-04-26T04:10:20;100784.50;;;-0.95;100.00
62694;BME280;48759;52.544;13.418;2023-04-26T04:12:48;100794.59;;;-0.97;100.00
62694;BME280;48759;52.544;13.418;2023-04-26T04:15:18;100795.91;;;-0.91;100.00
62694;BME280;48759;52.544;13.418;2023-04-26T04:17:46;100788.66;;;-0.91;100.00
62694;BME280;48759;52.544;13.418;2023-04-26T04:20:13;100795.06;;;-0.92;100.00
62694;BME280;48759;52.544;13.418;2023-04-26T04:22:40;100786.75;;;-1.00;100.00
62694;BME280;48759;52.544;13.418;2023-04-26T04:25:07;100795.06;;;-0.92;100.00
62694;BME280;48759;52.544;13.418;2023-04-26T04:27:34;100795.78;;;-0.90;100.00
62694;BME280;48759;52.544;13.418;2023-04-26T04:30:03;100800.72;;;-0.95;100.00
62694;BME280;48759;52.544;13.418;2023-04-26T04:32:33;100798.47;;;-0.90;100.00
62694;BME280;48759;52.544;13.418;2023-04-26T04:35:00;100796.25;;;-0.85;100.00
62694;BME280;48759;52.544;13.418;2023-04-26T04:37:26;100805.66;;;-0.79;100.00
62694;BME280;48759;52.544;13.418;2023-04-26T04:39:54;100805.91;;;-0.82;100.00
62694;BME280;48759;52.544;13.418;2023-04-26T04:42:20;100804.41;;;-0.75;100.00
62694;BME280;48759;52.544;13.418;2023-04-26T04:44:47;100802.84;;;-0.78;100.00
62694;BME280;48759;52.544;13.418;2023-04-26T04:47:15;100809.56;;;-0.72;100.00
62694;BME280;48759;52.544;13.418;2023-04-26T04:49:43;100813.44;;;-0.65;100.00
62694;BME280;48759;52.544;13.418;2023-04-26T04:52:10;100811.47;;;-0.63;100.00
62694;BME280;48759;52.544;13.418;2023-04-26T04:54:38;100825.97;;;-0.64;100.00
62694;BME280;48759;52.544;13.418;2023-04-26T04:57:05;100816.94;;;-0.53;100.00
62694;BME280;48759;52.544;13.418;2023-04-26T04:59:31;100814.69;;;-0.48;100.00
62694;BME280;48759;52.544;13.418;2023-04-26T05:01:58;100832.63;;;-0.47;100.00
62694;BME280;48759;52.544;13.418;2023-04-26T05:04:25;100833.75;;;-0.50;100.00
62694;BME280;48759;52.544;13.418;2023-04-26T05:06:54;100831.16;;;-0.51;100.00
62694;BME280;48759;52.544;13.418;2023-04-26T05:09:20;100831.78;;;-0.48;100.00
62694;BME280;48759;52.544;13.418;2023-04-26T05:11:47;100836.31;;;-0.48;100.00
62694;BME280;48759;52.544;13.418;2023-04-26T05:14:14;100853.06;;;-0.33;100.00
62694;BME280;48759;52.544;13.418;2023-04-26T05:16:40;100839.22;;;-0.40;100.00
62694;BME280;48759;52.544;13.418;2023-04-26T05:19:07;100838.47;;;-0.42;100.00
62694;BME280;48759;52.544;13.418;2023-04-26T05:21:34;100848.75;;;-0.36;100.00
62694;BME280;48759;52.544;13.418;2023-04-26T05:24:03;100845.25;;;-0.27;100.00
62694;BME280;48759;52.544;13.418;2023-04-26T05:26:30;100844.78;;;-0.11;100.00
62694;BME280;48759;52.544;13.418;2023-04-26T05:28:57;100863.31;;;-0.07;100.00
62694;BME280;48759;52.544;13.418;2023-04-26T05:31:24;100853.13;;;0.07;100.00
62694;BME280;48759;52.544;13.418;2023-04-26T05:33:51;100858.22;;;-0.00;100.00
62694;BME280;48759;52.544;13.418;2023-04-26T05:36:17;100848.84;;;0.04;100.00
62694;BME280;48759;52.544;13.418;2023-04-26T05:38:49;100863.94;;;0.07;100.00
62694;BME280;48759;52.544;13.418;2023-04-26T05:41:18;100857.84;;;0.14;100.00
62694;BME280;48759;52.544;13.418;2023-04-26T05:43:46;100864.13;;;0.15;100.00
62694;BME280;48759;52.544;13.418;2023-04-26T05:46:13;100864.03;;;0.26;100.00
62694;BME280;48759;52.544;13.418;2023-04-26T05:48:39;100865.78;;;0.36;100.00
62694;BME280;48759;52.544;13.418;2023-04-26T05:51:06;100871.06;;;0.38;100.00
62694;BME280;48759;52.544;13.418;2023-04-26T05:53:33;100874.88;;;0.35;100.00
62694;BME280;48759;52.544;13.418;2023-04-26T05:56:00;100868.09;;;0.51;100.00
62694;BME280;48759;52.544;13.418;2023-04-26T05:58:28;100867.84;;;0.63;100.00
62694;BME280;48759;52.544;13.418;2023-04-26T06:00:55;100862.44;;;0.63;100.00
62694;BME280;48759;52.544;13.418;2023-04-26T06:03:22;100876.41;;;0.68;100.00
62694;BME280;48759;52.544;13.418;2023-04-26T06:05:48;100871.56;;;0.62;100.00
62694;BME280;48759;52.544;13.418;2023-04-26T06:08:15;100873.56;;;0.70;100.00
62694;BME280;48759;52.544;13.418;2023-04-26T06:10:41;100880.44;;;0.84;100.00
62694;BME280;48759;52.544;13.418;2023-04-26T06:13:08;100870.19;;;0.87;100.00
62694;BME280;48759;52.544;13.418;2023-04-26T06:15:36;100878.06;;;1.00;100.00
62694;BME280;48759;52.544;13.418;2023-04-26T06:18:04;100871.69;;;1.10;100.00
62694;BME280;48759;52.544;13.418;2023-04-26T06:20:30;100877.38;;;1.17;100.00
62694;BME280;48759;52.544;13.418;2023-04-26T06:22:57;100876.78;;;1.13;100.00
62694;BME280;48759;52.544;13.418;2023-04-26T06:25:24;100870.53;;;1.13;100.00
62694;BME280;48759;52.544;13.418;2023-04-26T06:27:50;100869.09;;;1.19;100.00
62694;BME280;48759;52.544;13.418;2023-04-26T06:30:18;100874.50;;;1.38;100.00
62694;BME280;48759;52.544;13.418;2023-04-26T06:32:46;100883.63;;;1.37;100.00
62694;BME280;48759;52.544;13.418;2023-04-26T06:35:13;100882.50;;;1.30;100.00
62694;BME280;48759;52.544;13.418;2023-04-26T06:37:40;100883.09;;;1.33;100.00
62694;BME280;48759;52.544;13.418;2023-04-26T06:40:07;100896.50;;;1.44;100.00
62694;BME280;48759;52.544;13.418;2023-04-26T06:42:35;100897.47;;;1.63;100.00
62694;BME280;48759;52.544;13.418;2023-04-26T06:45:02;100885.31;;;1.86;100.00
62694;BME280;48759;52.544;13.418;2023-04-26T06:47:28;100886.59;;;1.82;100.00
62694;BME280;48759;52.544;13.418;2023-04-26T06:49:57;100888.13;;;2.04;100.00
62694;BME280;48759;52.544;13.418;2023-04-26T06:52:23;100894.13;;;2.07;100.00
62694;BME280;48759;52.544;13.418;2023-04-26T06:54:50;100896.00;;;2.34;100.00
62694;BME280;48759;52.544;13.418;2023-04-26T06:57:17;100903.19;;;2.25;100.00
62694;BME280;48759;52.544;13.418;2023-04-26T06:59:44;100891.16;;;2.38;100.00
62694;BME280;48759;52.544;13.418;2023-04-26T07:02:11;100890.59;;;2.34;100.00
62694;BME280;48759;52.544;13.418;2023-04-26T07:04:37;100891.31;;;2.26;100.00
62694;BME280;48759;52.544;13.418;2023-04-26T07:07:06;100898.19;;;2.30;100.00
62694;BME280;48759;52.544;13.418;2023-04-26T07:09:32;100879.69;;;2.44;100.00
62694;BME280;48759;52.544;13.418;2023-04-26T07:11:59;100885.31;;;2.60;100.00
62694;BME280;48759;52.544;13.418;2023-04-26T07:14:26;100894.34;;;2.60;100.00
62694;BME280;48759;52.544;13.418;2023-04-26T07:16:52;100894.53;;;2.77;100.00
62694;BME280;48759;52.544;13.418;2023-04-26T07:19:19;100898.78;;;2.79;100.00
62694;BME280;48759;52.544;13.418;2023-04-26T07:21:46;100893.56;;;2.68;100.00
62694;BME280;48759;52.544;13.418;2023-04-26T07:24:14;100900.13;;;2.75;100.00
62694;BME280;48759;52.544;13.418;2023-04-26T07:26:40;100889.44;;;2.91;100.00
62694;BME280;48759;52.544;13.418;2023-04-26T07:29:07;100907.63;;;3.08;100.00
62694;BME280;48759;52.544;13.418;2023-04-26T07:31:34;100898.38;;;3.19;100.00
62694;BME280;48759;52.544;13.418;2023-04-26T07:34:01;100906.38;;;3.03;100.00
62694;BME280;48759;52.544;13.418;2023-04-26T07:36:28;100905.78;;;3.27;100.00
62694;BME280;48759;52.544;13.418;2023-04-26T07:38:55;100894.66;;;3.20;100.00
62694;BME280;48759;52.544;13.418;2023-04-26T07:41:24;100897.72;;;3.35;100.00
62694;BME280;48759;52.544;13.418;2023-04-26T07:43:51;100918.69;;;3.25;100.00
62694;BME280;48759;52.544;13.418;2023-04-26T07:46:17;100912.91;;;3.28;100.00
62694;BME280;48759;52.544;13.418;2023-04-26T07:48:44;100915.38;;;3.49;100.00
62694;BME280;48759;52.544;13.418;2023-04-26T07:51:12;100906.97;;;3.42;100.00
62694;BME280;48759;52.544;13.418;2023-04-26T07:53:39;100920.03;;;3.56;100.00
62694;BME280;48759;52.544;13.418;2023-04-26T07:56:07;100916.69;;;3.62;100.00
62694;BME280;48759;52.544;13.418;2023-04-26T07:58:36;100935.88;;;3.78;100.00
62694;BME280;48759;52.544;13.418;2023-04-26T08:01:03;100921.63;;;3.84;100.00
62694;BME280;48759;52.544;13.418;2023-04-26T08:03:30;100921.00;;;3.91;100.00
62694;BME280;48759;52.544;13.418;2023-04-26T08:05:57;100912.44;;;4.03;100.00
62694;BME280;48759;52.544;13.418;2023-04-26T08:08:24;100913.84;;;4.41;100.00
62694;BME280;48759;52.544;13.418;2023-04-26T08:10:51;100917.78;;;4.47;100.00
62694;BME280;48759;52.544;13.418;2023-04-26T08:13:18;100921.59;;;4.28;100.00
62694;BME280;48759;52.544;13.418;2023-04-26T08:15:47;100923.06;;;3.97;100.00
62694;BME280;48759;52.544;13.418;2023-04-26T08:18:13;100930.19;;;3.90;100.00
62694;BME280;48759;52.544;13.418;2023-04-26T08:20:40;100922.75;;;4.17;100.00
62694;BME280;48759;52.544;13.418;2023-04-26T08:23:07;100934.91;;;4.31;100.00
62694;BME280;48759;52.544;13.418;2023-04-26T08:25:33;100939.59;;;4.21;100.00
62694;BME280;48759;52.544;13.418;2023-04-26T08:28:00;100931.97;;;4.24;100.00
62694;BME280;48759;52.544;13.418;2023-04-26T08:30:27;100930.41;;;4.22;100.00
62694;BME280;48759;52.544;13.418;2023-04-26T08:32:55;100924.03;;;4.65;100.00
62694;BME280;48759;52.544;13.418;2023-04-26T08:35:22;100931.81;;;4.60;100.00
62694;BME280;48759;52.544;13.418;2023-04-26T08:37:48;100944.09;;;4.30;100.00
62694;BME280;48759;52.544;13.418;2023-04-26T08:40:21;100944.13;;;4.38;100.00
62694;BME280;48759;52.544;13.418;2023-04-26T08:42:48;100917.47;;;4.92;100.00
62694;BME280;48759;52.544;13.418;2023-04-26T08:45:18;100929.28;;;5.00;100.00
62694;BME280;48759;52.544;13.418;2023-04-26T08:47:47;100927.22;;;5.61;100.00
62694;BME280;48759;52.544;13.418;2023-04-26T08:50:18;100932.69;;;5.69;100.00
62694;BME280;48759;52.544;13.418;2023-04-26T08:52:47;100936.72;;;5.32;100.00
62694;BME280;48759;52.544;13.418;2023-04-26T08:55:14;100930.50;;;5.14;100.00
62694;BME280;48759;52.544;13.418;2023-04-26T08:57:42;100931.31;;;5.49;100.00
62694;BME280;48759;52.544;13.418;2023-04-26T09:00:10;100932.69;;;5.53;100.00
62694;BME280;48759;52.544;13.418;2023-04-26T09:02:38;100942.53;;;5.46;100.00
62694;BME280;48759;52.544;13.418;2023-04-26T09:05:07;100941.00;;;5.27;100.00
62694;BME280;48759;52.544;13.418;2023-04-26T09:07:39;100947.50;;;5.00;100.00
62694;BME280;48759;52.544;13.418;2023-04-26T09:10:09;100939.56;;;4.73;100.00
62694;BME280;48759;52.544;13.418;2023-04-26T09:12:37;100947.97;;;4.53;100.00
62694;BME280;48759;52.544;13.418;2023-04-26T09:15:04;100946.56;;;4.41;100.00
62694;BME280;48759;52.544;13.418;2023-04-26T09:17:33;100954.38;;;4.44;100.00
62694;BME280;48759;52.544;13.418;2023-04-26T09:20:05;100931.66;;;4.61;100.00
62694;BME280;48759;52.544;13.418;2023-04-26T09:22:44;100971.31;;;4.82;100.00
62694;BME280;48759;52.544;13.418;2023-04-26T09:25:15;100943.50;;;4.78;100.00
62694;BME280;48759;52.544;13.418;2023-04-26T09:27:43;100926.22;;;5.04;100.00
62694;BME280;48759;52.544;13.418;2023-04-26T09:30:12;100930.63;;;5.71;100.00
62694;BME280;48759;52.544;13.418;2023-04-26T09:32:44;100937.44;;;5.51;100.00
62694;BME280;48759;52.544;13.418;2023-04-26T09:35:24;100925.13;;;5.30;100.00
62694;BME280;48759;52.544;13.418;2023-04-26T09:37:53;100943.53;;;5.20;100.00
62694;BME280;48759;52.544;13.418;2023-04-26T09:40:21;100926.16;;;5.46;100.00
62694;BME280;48759;52.544;13.418;2023-04-26T09:42:55;100932.31;;;5.56;100.00
62694;BME280;48759;52.544;13.418;2023-04-26T09:45:23;100934.56;;;5.52;100.00
62694;BME280;48759;52.544;13.418;2023-04-26T09:47:53;100937.75;;;5.39;100.00
62694;BME280;48759;52.544;13.418;2023-04-26T09:50:28;100938.69;;;5.14;100.00
62694;BME280;48759;52.544;13.418;2023-04-26T09:52:56;100943.06;;;4.99;100.00
62694;BME280;48759;52.544;13.418;2023-04-26T09:55:27;100932.22;;;5.15;100.00
62694;BME280;48759;52.544;13.418;2023-04-26T09:57:54;100932.31;;;5.39;100.00
62694;BME280;48759;52.544;13.418;2023-04-26T10:00:21;100944.75;;;5.34;100.00
62694;BME280;48759;52.544;13.418;2023-04-26T10:02:51;100945.34;;;5.12;100.00
62694;BME280;48759;52.544;13.418;2023-04-26T10:05:18;100935.94;;;5.06;100.00
62694;BME280;48759;52.544;13.418;2023-04-26T10:07:46;100948.34;;;5.00;100.00
62694;BME280;48759;52.544;13.418;2023-04-26T10:10:14;100937.50;;;4.75;100.00
62694;BME280;48759;52.544;13.418;2023-04-26T10:12:42;100940.81;;;4.86;100.00
62694;BME280;48759;52.544;13.418;2023-04-26T10:15:11;100942.50;;;5.21;100.00
62694;BME280;48759;52.544;13.418;2023-04-26T10:17:38;100934.03;;;5.57;100.00
62694;BME280;48759;52.544;13.418;2023-04-26T10:20:09;100939.19;;;5.76;100.00
62694;BME280;48759;52.544;13.418;2023-04-26T10:22:42;100944.28;;;5.79;100.00
62694;BME280;48759;52.544;13.418;2023-04-26T10:25:10;100952.81;;;5.52;100.00
62694;BME280;48759;52.544;13.418;2023-04-26T10:27:49;100951.56;;;5.38;100.00
62694;BME280;48759;52.544;13.418;2023-04-26T10:30:21;100952.63;;;5.37;100.00
62694;BME280;48759;52.544;13.418;2023-04-26T10:33:20;100951.75;;;4.94;100.00
62694;BME280;48759;52.544;13.418;2023-04-26T10:36:03;100976.06;;;4.80;100.00
62694;BME280;48759;52.544;13.418;2023-04-26T10:38:30;100948.97;;;4.78;100.00
62694;BME280;48759;52.544;13.418;2023-04-26T10:41:28;100967.53;;;4.83;100.00
62694;BME280;48759;52.544;13.418;2023-04-26T10:46:48;100968.13;;;5.28;100.00
62694;BME280;48759;52.544;13.418;2023-04-26T10:49:16;100951.59;;;5.54;100.00
62694;BME280;48759;52.544;13.418;2023-04-26T10:52:09;100955.00;;;5.40;100.00
62694;BME280;48759;52.544;13.418;2023-04-26T10:54:50;100955.53;;;5.44;100.00
62694;BME280;48759;52.544;13.418;2023-04-26T10:57:18;100941.22;;;5.90;100.00
62694;BME280;48759;52.544;13.418;2023-04-26T11:00:24;100948.03;;;6.10;100.00
62694;BME280;48759;52.544;13.418;2023-04-26T11:03:11;100944.47;;;5.53;100.00
62694;BME280;48759;52.544;13.418;2023-04-26T11:05:52;100951.78;;;5.45;100.00
62694;BME280;48759;52.544;13.418;2023-04-26T11:08:23;100950.28;;;5.74;100.00
62694;BME280;48759;52.544;13.418;2023-04-26T11:10:56;100947.72;;;5.97;100.00
62694;BME280;48759;52.544;13.418;2023-04-26T11:13:22;100944.28;;;6.28;99.57
62694;BME280;48759;52.544;13.418;2023-04-26T11:15:53;100953.50;;;6.27;98.91
62694;BME280;48759;52.544;13.418;2023-04-26T11:18:20;100947.84;;;6.36;94.10
62694;BME280;48759;52.544;13.418;2023-04-26T11:20:47;100943.25;;;6.21;93.78
62694;BME280;48759;52.544;13.418;2023-04-26T11:23:14;100941.78;;;6.65;93.75
62694;BME280;48759;52.544;13.418;2023-04-26T11:25:43;100950.50;;;6.77;92.91
62694;BME280;48759;52.544;13.418;2023-04-26T11:28:10;100944.53;;;7.12;84.01
62694;BME280;48759;52.544;13.418;2023-04-26T11:30:37;100950.94;;;7.27;80.20
62694;BME280;48759;52.544;13.418;2023-04-26T11:33:15;100942.94;;;7.26;79.95
62694;BME280;48759;52.544;13.418;2023-04-26T11:35:42;100948.00;;;7.83;77.08
62694;BME280;48759;52.544;13.418;2023-04-26T11:38:08;100948.63;;;7.47;74.40
62694;BME280;48759;52.544;13.418;2023-04-26T11:40:37;100947.47;;;7.03;77.88
62694;BME280;48759;52.544;13.418;2023-04-26T11:43:04;100945.25;;;7.37;75.74
62694;BME280;48759;52.544;13.418;2023-04-26T11:45:32;100941.34;;;7.01;82.47
62694;BME280;48759;52.544;13.418;2023-04-26T11:48:01;100944.50;;;6.73;87.81
62694;BME280;48759;52.544;13.418;2023-04-26T11:50:31;100948.97;;;6.74;88.82
62694;BME280;48759;52.544;13.418;2023-04-26T11:53:00;100953.56;;;6.74;85.68
62694;BME280;48759;52.544;13.418;2023-04-26T11:55:28;100958.63;;;7.01;78.93
62694;BME280;48759;52.544;13.418;2023-04-26T11:57:55;100945.19;;;6.67;77.75
62694;BME280;48759;52.544;13.418;2023-04-26T12:00:23;100949.97;;;6.65;72.50
62694;BME280;48759;52.544;13.418;2023-04-26T12:02:50;100959.50;;;6.22;73.78
62694;BME280;48759;52.544;13.418;2023-04-26T12:05:24;100954.84;;;6.39;74.35
62694;BME280;48759;52.544;13.418;2023-04-26T12:07:54;100958.56;;;6.62;74.61
62694;BME280;48759;52.544;13.418;2023-04-26T12:10:24;100951.84;;;7.20;73.86
62694;BME280;48759;52.544;13.418;2023-04-26T12:12:52;100943.88;;;7.41;73.31
62694;BME280;48759;52.544;13.418;2023-04-26T12:15:22;100953.38;;;7.76;72.14
62694;BME280;48759;52.544;13.418;2023-04-26T12:17:53;100947.25;;;8.34;68.92
62694;BME280;48759;52.544;13.418;2023-04-26T12:20:26;100959.59;;;8.16;66.73
62694;BME280;48759;52.544;13.418;2023-04-26T12:22:59;100955.38;;;7.59;71.86
62694;BME280;48759;52.544;13.418;2023-04-26T12:25:26;100961.41;;;7.24;77.83
62694;BME280;48759;52.544;13.418;2023-04-26T12:27:52;100957.97;;;7.30;81.33
62694;BME280;48759;52.544;13.418;2023-04-26T12:30:19;100973.34;;;7.00;83.36
62694;BME280;48759;52.544;13.418;2023-04-26T12:32:47;100962.78;;;7.20;84.21
62694;BME280;48759;52.544;13.418;2023-04-26T12:35:14;100960.81;;;7.06;86.65
62694;BME280;48759;52.544;13.418;2023-04-26T12:37:40;100958.25;;;7.04;88.26
62694;BME280;48759;52.544;13.418;2023-04-26T12:40:10;100954.25;;;6.84;92.32
62694;BME280;48759;52.544;13.418;2023-04-26T12:42:38;100965.34;;;6.82;94.48
62694;BME280;48759;52.544;13.418;2023-04-26T12:45:05;100962.31;;;6.61;97.35
62694;BME280;48759;52.544;13.418;2023-04-26T12:47:32;100964.06;;;7.09;95.38